Time;durP1;ratioP1;P1;durP2;ratioP2;P2;SDS_P1;SDS_P2;PMS_P1;PMS_P2;Temp;Humidity;BMP_temperature;BMP_pressure;BME280_temperature;BME280_humidity;BME280_pressure;Samples;Min_cycle;Max_cycle;Signal;HPM_P1;HPM_P2
2021/10/01 00:00:45;;;;;;;;;;;;;;;;;;4968005;28;20490;-65
2021/10/01 00:03:12;;;;;;;22.15;3.60;;;;;;;;;;4964726;28;19934;-65
2021/10/01 00:05:39;;;;;;;17.35;4.38;;;;;;;;;;4966373;28;20158;-65
2021/10/01 00:08:06;;;;;;;26.83;4.03;;;;;;;;;;4962719;28;20466;-65
2021/10/01 00:10:32;;;;;;;16.92;3.83;;;;;;;;;;4968072;28;20090;-65
2021/10/01 00:12:59;;;;;;;26.80;4.20;;;;;;;;;;4962998;28;20470;-65
2021/10/01 00:15:27;;;;;;;23.52;3.65;;;;;;;;;;4959461;28;20448;-65
2021/10/01 00:17:54;;;;;;;20.75;3.75;;;;;;;;;;4966294;28;20061;-65
2021/10/01 00:20:20;;;;;;;20.80;3.73;;;;;;;;;;4959607;28;20134;-65
2021/10/01 00:22:47;;;;;;;22.15;3.70;;;;;;;;;;4960003;28;20381;-65
2021/10/01 00:25:13;;;;;;;37.50;4.75;;;;;;;;;;4965466;28;20141;-65
2021/10/01 00:27:39;;;;;;;25.25;4.22;;;;;;;;;;4963885;28;20082;-65
2021/10/01 00:30:06;;;;;;;25.40;4.27;;;;;;;;;;4964506;28;20141;-64
2021/10/01 00:32:33;;;;;;;25.42;3.90;;;;;;;;;;4960493;28;20381;-65
2021/10/01 00:35:01;;;;;;;33.65;4.32;;;;;;;;;;4962365;28;20078;-65
2021/10/01 00:37:28;;;;;;;33.13;4.13;;;;;;;;;;4963989;28;20050;-65
2021/10/01 00:39:54;;;;;;;30.08;4.07;;;;;;;;;;4966362;28;20670;-65
2021/10/01 00:42:21;;;;;;;25.70;4.28;;;;;;;;;;4967632;28;20094;-65
2021/10/01 00:44:48;;;;;;;27.77;4.38;;;;;;;;;;4965329;28;20141;-65
2021/10/01 00:47:14;;;;;;;30.52;4.45;;;;;;;;;;4960147;28;20074;-65
2021/10/01 00:49:41;;;;;;;24.08;4.13;;;;;;;;;;4964276;28;20083;-65
2021/10/01 00:52:08;;;;;;;26.10;4.43;;;;;;;;;;4963923;28;20153;-65
2021/10/01 00:54:35;;;;;;;30.00;4.28;;;;;;;;;;4963874;28;20161;-65
2021/10/01 00:57:01;;;;;;;19.30;4.93;;;;;;;;;;4961845;28;20090;-65
2021/10/01 00:59:28;;;;;;;27.98;4.57;;;;;;;;;;4961705;28;20089;-65
2021/10/01 01:01:54;;;;;;;41.40;5.40;;;;;;;;;;4968581;28;20565;-65
2021/10/01 01:04:21;;;;;;;24.75;5.10;;;;;;;;;;4964009;28;20042;-65
2021/10/01 01:06:48;;;;;;;37.30;4.88;;;;;;;;;;4968511;28;20872;-65
2021/10/01 01:09:33;;;;;;;35.13;4.75;;;;;;;;;;4964123;28;20465;-65
2021/10/01 01:12:04;;;;;;;34.83;4.93;;;;;;;;;;4968816;28;20135;-65
2021/10/01 01:14:36;;;;;;;35.25;4.53;;;;;;;;;;4963630;28;20130;-65
2021/10/01 01:17:06;;;;;;;30.33;5.10;;;;;;;;;;4963278;28;20122;-65
2021/10/01 01:19:52;;;;;;;25.85;4.88;;;;;;;;;;4964649;28;20050;-65
2021/10/01 01:22:38;;;;;;;25.17;4.57;;;;;;;;;;4965948;28;20046;-65
2021/10/01 01:25:04;;;;;;;31.08;4.82;;;;;;;;;;4961554;28;20129;-65
2021/10/01 01:27:57;;;;;;;24.35;3.88;;;;;;;;;;4963419;28;20047;-65
2021/10/01 01:30:25;;;;;;;15.27;3.72;;;;;;;;;;4966016;28;20130;-66
2021/10/01 01:32:54;;;;;;;16.98;3.58;;;;;;;;;;4965278;28;20082;-66
2021/10/01 01:35:23;;;;;;;17.25;3.30;;;;;;;;;;4967315;28;20126;-66
2021/10/01 01:37:52;;;;;;;19.45;3.67;;;;;;;;;;4961216;28;20130;-67
2021/10/01 01:40:21;;;;;;;21.45;3.10;;;;;;;;;;4970079;28;20480;-68
2021/10/01 01:42:48;;;;;;;20.58;4.00;;;;;;;;;;4967618;28;20134;-68
2021/10/01 01:45:17;;;;;;;17.50;3.97;;;;;;;;;;4969381;28;20086;-67
2021/10/01 01:47:44;;;;;;;17.25;3.20;;;;;;;;;;4967105;28;20130;-67
2021/10/01 01:50:11;;;;;;;22.00;3.72;;;;;;;;;;4966755;28;20227;-67
2021/10/01 01:52:38;;;;;;;15.13;4.32;;;;;;;;;;4960084;28;20093;-67
2021/10/01 01:55:05;;;;;;;;;;;;;;;;;;4964864;28;20130;-68
2021/10/01 01:57:31;;;;;;;20.10;3.25;;;;;;;;;;4968682;28;20390;-67
2021/10/01 01:59:59;;;;;;;16.17;3.00;;;;;;;;;;4962621;28;20126;-67
2021/10/01 02:02:26;;;;;;;15.63;3.10;;;;;;;;;;4970284;28;20146;-67
2021/10/01 02:04:54;;;;;;;13.93;3.33;;;;;;;;;;4969181;28;20078;-66
2021/10/01 02:07:20;;;;;;;18.55;3.38;;;;;;;;;;4967433;28;20125;-66
2021/10/01 02:09:47;;;;;;;21.93;3.47;;;;;;;;;;4966656;28;20502;-67
2021/10/01 02:12:14;;;;;;;14.40;2.93;;;;;;;;;;4967786;28;20322;-67
2021/10/01 02:14:46;;;;;;;8.60;2.50;;;;;;;;;;4962705;28;20134;-67
2021/10/01 02:17:13;;;;;;;22.98;3.03;;;;;;;;;;4967166;28;20869;-67
2021/10/01 02:19:42;;;;;;;13.75;2.63;;;;;;;;;;4966218;28;20089;-67
2021/10/01 02:22:09;;;;;;;13.50;2.50;;;;;;;;;;4967638;28;20097;-67
2021/10/01 02:24:36;;;;;;;12.02;2.55;;;;;;;;;;4965933;28;20137;-67
2021/10/01 02:27:03;;;;;;;12.20;2.85;;;;;;;;;;4967233;28;20078;-67
2021/10/01 02:29:35;;;;;;;8.50;2.17;;;;;;;;;;4963498;28;20090;-67
2021/10/01 02:32:02;;;;;;;15.27;2.83;;;;;;;;;;4963516;28;20081;-67
2021/10/01 02:34:32;;;;;;;18.13;3.10;;;;;;;;;;4965139;28;20090;-67
2021/10/01 02:36:58;;;;;;;15.25;2.88;;;;;;;;;;4966539;28;20181;-67
2021/10/01 02:39:25;;;;;;;11.50;2.78;;;;;;;;;;4965366;28;20418;-67
2021/10/01 02:41:52;;;;;;;12.38;2.80;;;;;;;;;;4960985;28;20486;-67
2021/10/01 02:44:18;;;;;;;9.05;2.85;;;;;;;;;;4957045;28;20101;-67
2021/10/01 02:46:44;;;;;;;11.82;2.85;;;;;;;;;;4960740;28;20122;-67
2021/10/01 02:49:11;;;;;;;10.98;2.78;;;;;;;;;;4962531;28;20558;-67
2021/10/01 02:51:40;;;;;;;12.52;2.33;;;;;;;;;;4965633;28;20137;-66
2021/10/01 02:54:08;;;;;;;14.85;2.70;;;;;;;;;;4965490;28;20093;-67
2021/10/01 02:56:40;;;;;;;10.00;2.67;;;;;;;;;;4962532;28;20058;-67
2021/10/01 02:59:06;;;;;;;10.75;2.75;;;;;;;;;;4961724;28;21056;-67
2021/10/01 03:01:34;;;;;;;10.85;2.60;;;;;;;;;;4960859;28;20549;-67
2021/10/01 03:04:03;;;;;;;9.98;2.30;;;;;;;;;;4960285;28;20043;-67
2021/10/01 03:06:34;;;;;;;7.85;2.97;;;;;;;;;;4966336;28;20130;-67
2021/10/01 03:09:04;;;;;;;14.68;2.97;;;;;;;;;;4964218;28;20093;-67
2021/10/01 03:11:31;;;;;;;9.55;2.30;;;;;;;;;;4963083;28;20089;-67
2021/10/01 03:13:58;;;;;;;13.48;2.85;;;;;;;;;;4965321;28;20127;-67
2021/10/01 03:16:25;;;;;;;9.38;2.40;;;;;;;;;;4960136;28;20138;-67
2021/10/01 03:18:53;;;;;;;9.60;2.50;;;;;;;;;;4965469;28;20049;-67
2021/10/01 03:21:21;;;;;;;6.63;2.00;;;;;;;;;;4961217;28;20118;-67
2021/10/01 03:23:48;;;;;;;8.18;2.20;;;;;;;;;;4966718;28;20101;-66
2021/10/01 03:26:17;;;;;;;10.68;2.00;;;;;;;;;;4962285;28;20145;-67
2021/10/01 03:28:43;;;;;;;9.75;2.67;;;;;;;;;;4967701;28;20235;-67
2021/10/01 03:31:12;;;;;;;10.65;2.67;;;;;;;;;;4961204;28;20513;-67
2021/10/01 03:33:39;;;;;;;9.25;2.22;;;;;;;;;;4968645;28;20054;-67
2021/10/01 03:36:06;;;;;;;11.13;1.95;;;;;;;;;;4965946;28;20153;-66
2021/10/01 03:38:33;;;;;;;12.23;2.55;;;;;;;;;;4961884;28;20090;-67
2021/10/01 03:41:00;;;;;;;10.25;2.20;;;;;;;;;;4964928;28;20143;-67
2021/10/01 03:43:26;;;;;;;6.38;1.85;;;;;;;;;;4963311;28;20086;-66
2021/10/01 03:45:57;;;;;;;8.85;1.88;;;;;;;;;;4965115;28;20126;-66
2021/10/01 03:48:24;;;;;;;6.80;2.10;;;;;;;;;;4965607;28;20078;-67
2021/10/01 03:50:51;;;;;;;7.88;1.75;;;;;;;;;;4964403;28;20059;-67
2021/10/01 03:53:17;;;;;;;7.30;1.63;;;;;;;;;;4960926;28;20104;-67
2021/10/01 03:55:44;;;;;;;8.98;2.40;;;;;;;;;;4962081;28;20853;-67
2021/10/01 03:58:11;;;;;;;5.78;1.45;;;;;;;;;;4965911;28;20574;-67
2021/10/01 04:00:39;;;;;;;12.70;2.20;;;;;;;;;;4962745;28;20078;-67
2021/10/01 04:03:05;;;;;;;4.60;1.58;;;;;;;;;;4960309;28;20055;-67
2021/10/01 04:05:32;;;;;;;8.67;1.77;;;;;;;;;;4962657;28;20094;-67
2021/10/01 04:07:59;;;;;;;2.97;1.53;;;;;;;;;;4967075;28;20377;-67
2021/10/01 04:10:25;;;;;;;3.22;1.60;;;;;;;;;;4962426;28;21088;-67
2021/10/01 04:12:51;;;;;;;7.63;1.75;;;;;;;;;;4962000;28;20082;-67
2021/10/01 04:15:18;;;;;;;9.05;1.73;;;;;;;;;;4965886;28;20189;-67
2021/10/01 04:17:44;;;;;;;7.55;1.55;;;;;;;;;;4965353;28;20098;-67
2021/10/01 04:20:11;;;;;;;5.25;1.33;;;;;;;;;;4962328;28;20047;-67
2021/10/01 04:22:37;;;;;;;4.00;1.50;;;;;;;;;;4963125;28;20135;-67
2021/10/01 04:25:04;;;;;;;3.72;1.65;;;;;;;;;;4962594;28;20085;-67
2021/10/01 04:27:30;;;;;;;7.67;1.73;;;;;;;;;;4960333;28;20090;-67
2021/10/01 04:29:59;;;;;;;7.55;1.77;;;;;;;;;;4964721;28;20306;-67
2021/10/01 04:32:25;;;;;;;6.00;1.85;;;;;;;;;;4964670;28;20075;-67
2021/10/01 04:37:25;;;;;;;6.03;1.63;;;;;;;;;;4967621;28;20043;-68
2021/10/01 04:39:55;;;;;;;5.72;1.70;;;;;;;;;;4965782;28;20113;-67
2021/10/01 04:42:22;;;;;;;3.72;1.50;;;;;;;;;;4964818;28;20066;-68
2021/10/01 04:44:49;;;;;;;3.95;1.60;;;;;;;;;;4969004;28;20110;-67
2021/10/01 04:47:15;;;;;;;7.10;1.80;;;;;;;;;;4971122;28;20129;-67
2021/10/01 04:49:42;;;;;;;4.00;1.70;;;;;;;;;;4964224;28;20074;-67
2021/10/01 04:52:08;;;;;;;6.70;1.52;;;;;;;;;;4962269;28;20134;-67
2021/10/01 04:54:35;;;;;;;5.45;1.63;;;;;;;;;;4968680;28;20074;-67
2021/10/01 04:57:01;;;;;;;5.28;1.17;;;;;;;;;;4961634;28;20142;-67
2021/10/01 04:59:29;;;;;;;3.17;1.30;;;;;;;;;;4966733;28;20134;-67
2021/10/01 05:01:55;;;;;;;4.20;1.63;;;;;;;;;;4966857;28;20141;-67
2021/10/01 05:04:22;;;;;;;3.60;1.60;;;;;;;;;;4965391;28;20497;-67
2021/10/01 05:06:49;;;;;;;4.68;1.20;;;;;;;;;;4965394;28;20078;-67
2021/10/01 05:09:15;;;;;;;6.57;1.52;;;;;;;;;;4963802;28;20109;-67
2021/10/01 05:11:42;;;;;;;3.33;1.23;;;;;;;;;;4991861;28;20470;-67
2021/10/01 05:14:08;;;;;;;2.33;1.30;;;;;;;;;;4966226;28;20154;-67
2021/10/01 05:16:35;;;;;;;5.75;1.48;;;;;;;;;;4964290;28;20082;-67
2021/10/01 05:19:01;;;;;;;3.22;1.25;;;;;;;;;;4964110;28;20043;-67
2021/10/01 05:21:28;;;;;;;1.63;1.00;;;;;;;;;;4963661;28;20085;-67
2021/10/01 05:23:54;;;;;;;3.55;1.05;;;;;;;;;;4961471;28;20181;-67
2021/10/01 05:26:21;;;;;;;4.38;1.45;;;;;;;;;;4965688;28;20447;-67
2021/10/01 05:28:47;;;;;;;4.07;1.67;;;;;;;;;;4965132;28;20085;-67
2021/10/01 05:31:14;;;;;;;6.28;1.15;;;;;;;;;;4962648;28;20142;-67
2021/10/01 05:33:40;;;;;;;3.25;1.00;;;;;;;;;;4961390;28;20145;-67
2021/10/01 05:36:07;;;;;;;4.55;1.20;;;;;;;;;;4965685;28;20138;-67
2021/10/01 05:38:34;;;;;;;5.60;1.02;;;;;;;;;;4961646;28;20086;-67
2021/10/01 05:41:00;;;;;;;2.95;0.80;;;;;;;;;;4963055;28;20490;-67
2021/10/01 05:43:27;;;;;;;0.70;0.70;;;;;;;;;;4966520;28;20085;-68
2021/10/01 05:45:54;;;;;;;2.03;0.73;;;;;;;;;;4969344;28;20314;-67
2021/10/01 05:48:22;;;;;;;;;;;;;;;;;;4968642;28;20051;-67
2021/10/01 05:50:53;;;;;;;1.33;0.90;;;;;;;;;;4967045;28;20012;-67
2021/10/01 05:56:08;;;;;;;3.42;0.90;;;;;;;;;;4962149;28;20050;-67
2021/10/01 05:58:36;;;;;;;1.60;0.68;;;;;;;;;;4966533;28;20093;-67
2021/10/01 06:01:02;;;;;;;3.67;1.15;;;;;;;;;;4962586;28;20130;-67
2021/10/01 06:03:30;;;;;;;2.90;0.63;;;;;;;;;;4964336;28;20055;-67
2021/10/01 06:05:56;;;;;;;6.43;0.85;;;;;;;;;;4961460;28;20473;-67
2021/10/01 06:08:22;;;;;;;2.08;0.70;;;;;;;;;;4963897;28;20578;-67
2021/10/01 06:10:49;;;;;;;2.23;0.77;;;;;;;;;;4967965;28;20061;-67
2021/10/01 06:13:15;;;;;;;1.73;0.75;;;;;;;;;;4968778;28;20090;-67
2021/10/01 06:15:42;;;;;;;1.40;0.90;;;;;;;;;;4960363;28;20078;-67
2021/10/01 06:18:09;;;;;;;4.32;0.90;;;;;;;;;;4963361;28;20051;-67
2021/10/01 06:20:36;;;;;;;6.35;1.00;;;;;;;;;;4964493;28;20137;-66
2021/10/01 06:23:02;;;;;;;5.07;0.87;;;;;;;;;;4964248;28;20146;-67
2021/10/01 06:25:29;;;;;;;1.40;0.70;;;;;;;;;;4967207;28;20134;-67
2021/10/01 06:27:56;;;;;;;1.88;0.60;;;;;;;;;;4962429;28;20800;-67
2021/10/01 06:30:22;;;;;;;1.27;0.60;;;;;;;;;;4959362;28;20503;-67
2021/10/01 06:32:49;;;;;;;0.77;0.50;;;;;;;;;;4964332;28;20468;-67
2021/10/01 06:35:15;;;;;;;2.10;0.68;;;;;;;;;;4963479;28;20388;-66
2021/10/01 06:37:41;;;;;;;0.65;0.65;;;;;;;;;;4963739;28;20079;-67
2021/10/01 06:40:10;;;;;;;3.53;0.50;;;;;;;;;;4961782;28;20147;-67
2021/10/01 06:42:37;;;;;;;1.45;0.77;;;;;;;;;;4969569;28;20093;-66
2021/10/01 06:45:23;;;;;;;1.33;1.10;;;;;;;;;;4963289;28;20472;-66
2021/10/01 06:50:52;;;;;;;1.75;0.80;;;;;;;;;;4963287;28;20086;-66
2021/10/01 07:24:06;;;;;;;1.95;1.08;;;;;;;;;;4963388;28;20098;-66
2021/10/01 08:21:37;;;;;;;1.25;0.65;;;;;;;;;;4951371;29;20145;-67
2021/10/01 08:24:12;;;;;;;0.73;0.65;;;;;;;;;;4962319;28;20090;-67
2021/10/01 08:26:39;;;;;;;0.77;0.50;;;;;;;;;;4965212;28;20050;-67
2021/10/01 08:29:05;;;;;;;1.03;0.50;;;;;;;;;;4965906;28;20130;-67
2021/10/01 08:31:32;;;;;;;2.33;0.60;;;;;;;;;;4960043;28;20421;-67
2021/10/01 08:33:58;;;;;;;0.52;0.47;;;;;;;;;;4966007;28;20057;-67
2021/10/01 08:36:25;;;;;;;1.30;0.60;;;;;;;;;;4968959;28;20082;-67
2021/10/01 08:38:51;;;;;;;1.73;1.10;;;;;;;;;;4962618;28;20505;-67
2021/10/01 08:41:19;;;;;;;1.27;0.52;;;;;;;;;;4968310;28;20121;-67
2021/10/01 08:43:46;;;;;;;1.88;0.47;;;;;;;;;;4965692;28;20134;-67
2021/10/01 08:46:12;;;;;;;1.05;0.57;;;;;;;;;;4965926;28;20057;-66
2021/10/01 08:48:40;;;;;;;0.68;0.40;;;;;;;;;;4962863;28;20587;-67
2021/10/01 08:51:07;;;;;;;;;;;;;;;;;;4970629;28;20141;-67
2021/10/01 08:53:34;;;;;;;0.60;0.40;;;;;;;;;;4969169;28;19980;-67
2021/10/01 08:56:06;;;;;;;1.55;0.60;;;;;;;;;;4959388;28;20062;-67
2021/10/01 08:58:33;;;;;;;2.47;0.55;;;;;;;;;;4965082;28;20051;-67
2021/10/01 09:01:01;;;;;;;1.35;0.70;;;;;;;;;;4963581;28;20086;-67
2021/10/01 09:03:28;;;;;;;1.38;0.63;;;;;;;;;;4964404;28;20051;-67
2021/10/01 09:05:54;;;;;;;1.20;0.70;;;;;;;;;;4965132;28;20134;-67
2021/10/01 09:08:23;;;;;;;1.40;0.52;;;;;;;;;;4966060;28;20530;-67
2021/10/01 09:11:15;;;;;;;0.70;0.47;;;;;;;;;;4965622;28;20051;-67
2021/10/01 09:13:45;;;;;;;1.17;0.63;;;;;;;;;;4964302;28;20475;-67
2021/10/01 09:16:12;;;;;;;2.65;0.50;;;;;;;;;;4964418;28;20114;-67
2021/10/01 09:18:40;;;;;;;1.65;0.70;;;;;;;;;;4965489;28;20049;-67
2021/10/01 09:21:10;;;;;;;1.30;0.80;;;;;;;;;;4963520;28;20085;-66
2021/10/01 09:23:42;;;;;;;0.65;0.40;;;;;;;;;;4962121;28;20142;-66
2021/10/01 09:26:16;;;;;;;0.68;0.47;;;;;;;;;;4968987;28;20470;-66
2021/10/01 09:28:50;;;;;;;1.95;0.40;;;;;;;;;;4966624;28;20129;-66
2021/10/01 09:31:31;;;;;;;1.83;0.57;;;;;;;;;;4964754;28;20074;-66
2021/10/01 09:33:57;;;;;;;2.40;0.77;;;;;;;;;;4965065;28;20051;-67
2021/10/01 09:36:26;;;;;;;1.20;0.60;;;;;;;;;;4967368;28;20145;-67
2021/10/01 09:38:53;;;;;;;1.50;0.60;;;;;;;;;;4964634;28;20097;-67
2021/10/01 09:41:25;;;;;;;1.02;0.47;;;;;;;;;;4965371;28;20042;-67
2021/10/01 09:44:03;;;;;;;3.25;0.63;;;;;;;;;;4963429;28;20073;-67
2021/10/01 09:46:56;;;;;;;2.50;0.73;;;;;;;;;;4966884;28;20086;-67
2021/10/01 09:49:30;;;;;;;3.55;0.63;;;;;;;;;;4966329;28;20134;-67
2021/10/01 09:51:56;;;;;;;1.35;0.80;;;;;;;;;;4968318;28;20082;-67
2021/10/01 09:54:29;;;;;;;1.00;0.60;;;;;;;;;;4963020;28;20130;-67
2021/10/01 09:57:05;;;;;;;1.33;0.50;;;;;;;;;;4957360;28;20126;-67
2021/10/01 09:59:34;;;;;;;1.73;0.50;;;;;;;;;;4960147;28;20479;-67
2021/10/01 10:02:13;;;;;;;1.42;0.55;;;;;;;;;;4960996;28;20055;-67
2021/10/01 10:04:42;;;;;;;1.92;0.77;;;;;;;;;;4965331;28;20130;-67
2021/10/01 10:07:08;;;;;;;1.00;0.50;;;;;;;;;;4960553;28;20113;-67
2021/10/01 10:09:36;;;;;;;1.13;0.63;;;;;;;;;;4960354;28;20147;-66
2021/10/01 10:12:03;;;;;;;1.17;0.60;;;;;;;;;;4963148;28;20150;-67
2021/10/01 10:14:34;;;;;;;1.98;0.55;;;;;;;;;;4962156;28;20106;-67
2021/10/01 10:17:10;;;;;;;1.63;0.52;;;;;;;;;;4961633;28;20079;-67
2021/10/01 10:19:37;;;;;;;1.05;0.68;;;;;;;;;;4964061;28;20137;-67
2021/10/01 10:22:03;;;;;;;5.28;1.08;;;;;;;;;;4964358;28;20047;-67
2021/10/01 10:24:30;;;;;;;0.85;0.60;;;;;;;;;;4965588;28;20129;-68
2021/10/01 10:26:57;;;;;;;2.05;0.68;;;;;;;;;;4965953;28;20502;-67
2021/10/01 10:29:25;;;;;;;2.63;0.75;;;;;;;;;;4963199;28;20070;-67
2021/10/01 10:31:53;;;;;;;1.23;0.50;;;;;;;;;;4968033;28;20585;-67
2021/10/01 10:34:24;;;;;;;2.65;0.52;;;;;;;;;;4965056;28;20078;-67
2021/10/01 10:37:07;;;;;;;1.50;0.50;;;;;;;;;;4965577;28;20082;-67
2021/10/01 10:39:36;;;;;;;1.85;0.65;;;;;;;;;;4962852;28;20059;-68
2021/10/01 10:42:02;;;;;;;0.73;0.28;;;;;;;;;;4967709;28;20090;-67
2021/10/01 10:44:58;;;;;;;1.27;0.52;;;;;;;;;;4962750;28;20085;-67
2021/10/01 10:47:43;;;;;;;3.15;0.60;;;;;;;;;;4965963;28;20078;-67
2021/10/01 10:50:26;;;;;;;3.72;0.60;;;;;;;;;;4966053;28;20137;-67
2021/10/01 10:53:05;;;;;;;1.77;0.50;;;;;;;;;;4967677;28;20133;-67
2021/10/01 10:55:33;;;;;;;1.02;0.38;;;;;;;;;;4963072;28;20051;-66
2021/10/01 10:58:18;;;;;;;1.05;0.60;;;;;;;;;;4965124;28;20078;-66
2021/10/01 11:00:45;;;;;;;1.00;0.70;;;;;;;;;;4958321;28;20459;-67
2021/10/01 11:03:17;;;;;;;1.42;0.50;;;;;;;;;;4967083;28;20055;-67
2021/10/01 11:05:43;;;;;;;0.73;0.47;;;;;;;;;;4959944;28;20498;-68
2021/10/01 11:08:21;;;;;;;1.48;0.60;;;;;;;;;;4965253;28;20086;-67
2021/10/01 11:10:50;;;;;;;0.60;0.40;;;;;;;;;;4962901;28;20078;-67
2021/10/01 11:13:23;;;;;;;1.00;0.70;;;;;;;;;;4958469;28;20138;-67
2021/10/01 11:16:08;;;;;;;2.88;0.80;;;;;;;;;;4959176;28;20134;-67
2021/10/01 11:18:44;;;;;;;2.53;0.80;;;;;;;;;;4958691;28;20186;-67
2021/10/01 11:21:27;;;;;;;0.98;0.57;;;;;;;;;;4955578;28;20062;-67
2021/10/01 11:24:14;;;;;;;2.92;0.80;;;;;;;;;;4961938;28;20090;-67
2021/10/01 11:26:43;;;;;;;1.70;0.90;;;;;;;;;;4962511;28;20055;-67
2021/10/01 11:29:24;;;;;;;0.65;0.65;;;;;;;;;;4964678;28;20073;-67
2021/10/01 11:31:51;;;;;;;0.98;0.68;;;;;;;;;;4960363;28;20058;-67
2021/10/01 11:34:37;;;;;;;4.72;0.57;;;;;;;;;;4959661;28;20134;-67
2021/10/01 11:37:03;;;;;;;1.38;0.55;;;;;;;;;;4963621;28;20130;-67
2021/10/01 11:39:34;;;;;;;3.05;0.68;;;;;;;;;;4961533;28;20137;-67
2021/10/01 11:42:01;;;;;;;2.67;0.70;;;;;;;;;;4962690;28;20093;-66
2021/10/01 11:44:27;;;;;;;2.83;0.87;;;;;;;;;;4963718;28;20090;-66
2021/10/01 11:46:55;;;;;;;2.65;0.88;;;;;;;;;;4963089;28;20138;-66
2021/10/01 11:49:27;;;;;;;1.67;0.68;;;;;;;;;;4960463;28;20098;-66
2021/10/01 11:51:59;;;;;;;1.98;0.60;;;;;;;;;;4961609;28;20134;-66
2021/10/01 11:54:25;;;;;;;1.58;0.70;;;;;;;;;;4969670;28;20590;-66
2021/10/01 11:56:54;;;;;;;2.97;0.90;;;;;;;;;;4966132;28;20130;-66
2021/10/01 11:59:25;;;;;;;1.15;0.38;;;;;;;;;;4962970;28;20603;-66
2021/10/01 12:01:57;;;;;;;1.42;0.55;;;;;;;;;;4964466;28;20138;-66
2021/10/01 12:04:28;;;;;;;1.20;0.70;;;;;;;;;;4962258;28;20057;-66
2021/10/01 12:06:59;;;;;;;3.28;0.68;;;;;;;;;;4959579;28;20079;-66
2021/10/01 12:09:26;;;;;;;6.50;0.60;;;;;;;;;;4962941;28;20735;-67
2021/10/01 12:11:52;;;;;;;1.48;0.80;;;;;;;;;;4963058;28;20613;-66
2021/10/01 12:14:20;;;;;;;1.52;0.77;;;;;;;;;;4959848;28;20515;-66
2021/10/01 12:17:13;;;;;;;1.88;0.70;;;;;;;;;;4958160;28;20062;-66
2021/10/01 12:19:40;;;;;;;1.08;0.60;;;;;;;;;;4959238;28;20046;-66
2021/10/01 12:22:08;;;;;;;1.13;0.70;;;;;;;;;;4961003;28;20082;-66
2021/10/01 12:24:42;;;;;;;1.08;0.47;;;;;;;;;;4957782;28;20142;-66
2021/10/01 12:27:09;;;;;;;3.80;0.57;;;;;;;;;;4959051;28;20516;-66
2021/10/01 12:29:46;;;;;;;1.15;0.60;;;;;;;;;;4969148;28;20082;-66
2021/10/01 12:32:13;;;;;;;6.15;2.40;;;;;;;;;;4961618;28;20117;-66
2021/10/01 12:34:41;;;;;;;0.90;0.65;;;;;;;;;;4957898;28;20093;-66
2021/10/01 12:37:10;;;;;;;2.15;0.90;;;;;;;;;;4962777;28;20055;-66
2021/10/01 12:39:38;;;;;;;2.83;0.82;;;;;;;;;;4959922;28;20083;-66
2021/10/01 12:42:06;;;;;;;2.00;0.80;;;;;;;;;;4961792;28;20126;-66
2021/10/01 12:44:37;;;;;;;2.42;0.75;;;;;;;;;;4967763;28;20139;-66
2021/10/01 12:47:10;;;;;;;1.00;0.80;;;;;;;;;;4958850;28;20082;-66
2021/10/01 12:49:37;;;;;;;3.92;0.70;;;;;;;;;;4962915;28;20130;-66
2021/10/01 12:52:09;;;;;;;1.08;0.75;;;;;;;;;;4966052;28;20097;-66
2021/10/01 12:55:04;;;;;;;4.13;0.63;;;;;;;;;;4960282;28;20074;-66
2021/10/01 12:57:38;;;;;;;1.83;0.55;;;;;;;;;;4962545;28;20548;-67
2021/10/01 13:00:05;;;;;;;3.00;0.70;;;;;;;;;;4966563;28;20047;-66
2021/10/01 13:02:34;;;;;;;1.38;0.68;;;;;;;;;;4968438;28;20137;-66
2021/10/01 13:05:03;;;;;;;1.75;0.73;;;;;;;;;;4968993;28;20074;-66
2021/10/01 13:07:35;;;;;;;2.08;0.50;;;;;;;;;;4964162;28;20046;-66
2021/10/01 13:10:02;;;;;;;;;;;;;;;;;;4965167;28;20090;-66
2021/10/01 13:12:28;;;;;;;3.05;0.88;;;;;;;;;;4963274;28;20014;-66
2021/10/01 13:15:08;;;;;;;0.50;0.50;;;;;;;;;;4967875;28;20051;-66
2021/10/01 13:17:34;;;;;;;1.05;0.57;;;;;;;;;;4969265;28;20134;-66
2021/10/01 13:20:01;;;;;;;2.25;0.90;;;;;;;;;;4963682;28;20121;-65
2021/10/01 13:22:47;;;;;;;1.33;0.60;;;;;;;;;;4964068;28;20078;-66
2021/10/01 13:25:21;;;;;;;1.10;0.80;;;;;;;;;;4961819;28;20086;-66
2021/10/01 13:27:48;;;;;;;3.05;1.17;;;;;;;;;;4965320;28;20126;-63
2021/10/01 13:30:15;;;;;;;3.65;1.73;;;;;;;;;;4960356;28;20086;-65
2021/10/01 13:32:42;;;;;;;4.78;1.63;;;;;;;;;;4963615;28;20065;-66
2021/10/01 13:35:10;;;;;;;6.15;1.90;;;;;;;;;;4959605;28;20143;-66
2021/10/01 13:37:39;;;;;;;6.57;1.77;;;;;;;;;;4965938;28;20057;-65
2021/10/01 13:40:06;;;;;;;5.18;1.83;;;;;;;;;;4963055;28;20181;-66
2021/10/01 13:42:32;;;;;;;5.55;1.85;;;;;;;;;;4962813;28;20050;-66
2021/10/01 13:45:00;;;;;;;7.70;2.10;;;;;;;;;;4966461;28;20093;-66
2021/10/01 13:47:29;;;;;;;5.57;2.30;;;;;;;;;;4963252;28;20478;-66
2021/10/01 13:49:56;;;;;;;6.47;2.13;;;;;;;;;;4966398;28;20051;-66
2021/10/01 13:52:25;;;;;;;6.38;2.10;;;;;;;;;;4964953;28;20058;-66
2021/10/01 13:54:51;;;;;;;6.35;2.00;;;;;;;;;;4962753;28;20130;-66
2021/10/01 13:57:17;;;;;;;7.32;2.60;;;;;;;;;;4960740;28;20134;-67
2021/10/01 13:59:44;;;;;;;9.32;2.30;;;;;;;;;;4964115;28;20153;-66
2021/10/01 14:02:11;;;;;;;6.85;2.50;;;;;;;;;;4968512;28;20047;-66
2021/10/01 14:04:37;;;;;;;8.43;2.50;;;;;;;;;;4967509;28;20043;-66
2021/10/01 14:07:04;;;;;;;10.37;2.67;;;;;;;;;;4961350;28;20046;-66
2021/10/01 14:09:30;;;;;;;8.07;2.97;;;;;;;;;;4958322;28;20189;-66
2021/10/01 14:12:17;;;;;;;13.98;3.72;;;;;;;;;;4956666;28;20051;-66
2021/10/01 14:14:43;;;;;;;9.23;3.30;;;;;;;;;;4966268;28;20598;-66
2021/10/01 14:17:10;;;;;;;10.52;3.03;;;;;;;;;;4961589;28;20088;-66
2021/10/01 14:19:36;;;;;;;8.15;2.78;;;;;;;;;;4963577;28;20134;-65
2021/10/01 14:22:03;;;;;;;12.35;3.08;;;;;;;;;;4961045;28;20082;-66
2021/10/01 14:24:30;;;;;;;7.38;3.30;;;;;;;;;;4959146;28;20142;-66
2021/10/01 14:26:56;;;;;;;6.43;2.58;;;;;;;;;;4967257;28;20483;-66
2021/10/01 14:29:23;;;;;;;8.70;2.47;;;;;;;;;;4963749;28;20054;-66
2021/10/01 14:31:49;;;;;;;12.35;2.90;;;;;;;;;;4959685;28;20138;-66
2021/10/01 14:34:16;;;;;;;9.00;2.83;;;;;;;;;;4961413;28;20138;-66
2021/10/01 14:36:43;;;;;;;8.37;2.60;;;;;;;;;;4965605;28;20078;-66
2021/10/01 14:39:09;;;;;;;4.47;2.28;;;;;;;;;;4961633;28;20110;-65
2021/10/01 14:41:35;;;;;;;8.57;2.63;;;;;;;;;;4964484;28;20125;-66
2021/10/01 14:44:02;;;;;;;7.23;2.30;;;;;;;;;;4962421;28;20141;-66
2021/10/01 14:46:29;;;;;;;11.30;3.17;;;;;;;;;;4962674;28;20101;-66
2021/10/01 14:48:55;;;;;;;6.03;2.30;;;;;;;;;;4961376;28;20494;-66
2021/10/01 14:51:22;;;;;;;7.25;2.58;;;;;;;;;;4966331;28;20129;-66
2021/10/01 14:53:49;;;;;;;8.07;2.40;;;;;;;;;;4965343;28;20134;-65
2021/10/01 14:56:15;;;;;;;12.10;2.80;;;;;;;;;;4965829;28;20566;-66
2021/10/01 14:58:42;;;;;;;10.48;2.53;;;;;;;;;;4961176;28;20145;-66
2021/10/01 15:01:09;;;;;;;7.25;2.13;;;;;;;;;;4959619;28;20051;-65
2021/10/01 15:03:36;;;;;;;7.72;2.42;;;;;;;;;;4966288;28;20498;-66
2021/10/01 15:06:03;;;;;;;6.78;2.63;;;;;;;;;;4963782;28;20149;-65
2021/10/01 15:08:30;;;;;;;8.95;2.53;;;;;;;;;;4962190;28;20563;-66
2021/10/01 15:10:57;;;;;;;7.45;2.53;;;;;;;;;;4964159;28;20134;-66
2021/10/01 15:13:24;;;;;;;10.35;2.13;;;;;;;;;;4963420;28;20494;-66
2021/10/01 15:15:50;;;;;;;8.00;2.58;;;;;;;;;;4963099;28;20142;-66
2021/10/01 15:18:17;;;;;;;10.68;2.83;;;;;;;;;;4958370;28;20126;-66
2021/10/01 15:20:44;;;;;;;10.00;3.03;;;;;;;;;;4962123;28;20098;-66
2021/10/01 15:23:12;;;;;;;9.68;2.97;;;;;;;;;;4965513;28;20058;-66
2021/10/01 15:25:40;;;;;;;13.88;3.35;;;;;;;;;;4962094;28;20133;-66
2021/10/01 15:28:07;;;;;;;9.32;2.42;;;;;;;;;;4961079;28;20047;-66
2021/10/01 15:30:34;;;;;;;10.70;2.92;;;;;;;;;;4961009;28;20055;-66
2021/10/01 15:33:00;;;;;;;10.37;2.67;;;;;;;;;;4960520;28;20058;-66
2021/10/01 15:35:27;;;;;;;13.45;3.30;;;;;;;;;;4965313;28;20130;-66
2021/10/01 15:37:55;;;;;;;6.95;2.70;;;;;;;;;;4966892;28;20126;-66
2021/10/01 15:40:23;;;;;;;10.43;3.60;;;;;;;;;;4964090;28;20063;-66
2021/10/01 15:42:50;;;;;;;8.70;2.88;;;;;;;;;;4963627;28;20150;-66
2021/10/01 15:45:17;;;;;;;15.75;3.10;;;;;;;;;;4964680;28;20085;-66
2021/10/01 15:47:44;;;;;;;14.73;3.53;;;;;;;;;;4965180;28;20141;-66
2021/10/01 15:50:15;;;;;;;14.93;3.70;;;;;;;;;;4957243;28;20101;-66
2021/10/01 15:52:48;;;;;;;12.77;2.95;;;;;;;;;;4959305;28;20137;-66
2021/10/01 15:55:16;;;;;;;14.00;3.30;;;;;;;;;;4956079;28;20093;-66
2021/10/01 15:57:43;;;;;;;17.83;3.60;;;;;;;;;;4961766;28;20162;-66
2021/10/01 16:00:10;;;;;;;15.17;3.37;;;;;;;;;;4966768;28;20078;-66
2021/10/01 16:02:37;;;;;;;;;;;;;;;;;;4961956;28;20093;-66
2021/10/01 16:05:05;;;;;;;13.05;3.70;;;;;;;;;;4957904;28;19938;-66
2021/10/01 16:07:31;;;;;;;;;;;;;;;;;;4962517;28;20085;-65
2021/10/01 16:09:57;;;;;;;11.52;3.70;;;;;;;;;;4961333;28;20416;-65
2021/10/01 16:12:24;;;;;;;11.25;3.83;;;;;;;;;;4963422;28;21124;-66
2021/10/01 16:14:50;;;;;;;12.45;3.95;;;;;;;;;;4964013;28;20485;-65
2021/10/01 16:17:17;;;;;;;10.82;3.20;;;;;;;;;;4961697;28;20074;-66
2021/10/01 16:19:45;;;;;;;12.45;3.90;;;;;;;;;;4962522;28;20568;-65
2021/10/01 16:22:12;;;;;;;11.48;3.47;;;;;;;;;;4959998;28;20138;-66
2021/10/01 16:24:39;;;;;;;11.05;3.08;;;;;;;;;;4964155;28;20526;-66